sensor_id;sensor_type;location;lat;lon;timestamp;pressure;altitude;pressure_sealevel;temperature;humidity
69574;BME280;62840;52.366;5.980;2023-04-30T00:00:58;102309.97;;;7.23;64.99
69574;BME280;62840;52.366;5.980;2023-04-30T00:03:24;102311.84;;;7.21;65.16
69574;BME280;62840;52.366;5.980;2023-04-30T00:05:49;102309.34;;;7.18;65.19
69574;BME280;62840;52.366;5.980;2023-04-30T00:08:15;102308.53;;;7.16;65.23
69574;BME280;62840;52.366;5.980;2023-04-30T00:10:41;102305.09;;;7.14;65.33
69574;BME280;62840;52.366;5.980;2023-04-30T00:13:07;102314.00;;;7.13;65.07
69574;BME280;62840;52.366;5.980;2023-04-30T00:15:32;102312.25;;;7.12;65.28
69574;BME280;62840;52.366;5.980;2023-04-30T00:18:01;102312.25;;;7.12;65.07
69574;BME280;62840;52.366;5.980;2023-04-30T00:20:27;102306.94;;;7.12;65.29
69574;BME280;62840;52.366;5.980;2023-04-30T00:22:52;102310.53;;;7.11;65.30
69574;BME280;62840;52.366;5.980;2023-04-30T00:25:18;102301.78;;;7.09;65.47
69574;BME280;62840;52.366;5.980;2023-04-30T00:27:44;102307.09;;;7.09;65.49
69574;BME280;62840;52.366;5.980;2023-04-30T00:30:11;102300.03;;;7.08;65.50
69574;BME280;62840;52.366;5.980;2023-04-30T00:32:37;102307.22;;;7.06;65.65
69574;BME280;62840;52.366;5.980;2023-04-30T00:35:05;102314.41;;;7.04;65.72
69574;BME280;62840;52.366;5.980;2023-04-30T00:37:32;102307.34;;;7.03;65.69
69574;BME280;62840;52.366;5.980;2023-04-30T00:39:57;102310.94;;;7.02;65.55
69574;BME280;62840;52.366;5.980;2023-04-30T00:42:23;102306.63;;;6.99;65.42
69574;BME280;62840;52.366;5.980;2023-04-30T00:44:49;102305.75;;;6.99;65.43
69574;BME280;62840;52.366;5.980;2023-04-30T00:47:15;102309.47;;;6.95;65.38
69574;BME280;62840;52.366;5.980;2023-04-30T00:49:40;102299.94;;;6.90;65.45
69574;BME280;62840;52.366;5.980;2023-04-30T00:52:09;102301.88;;;6.87;65.71
69574;BME280;62840;52.366;5.980;2023-04-30T00:54:35;102309.88;;;6.85;65.73
69574;BME280;62840;52.366;5.980;2023-04-30T00:57:02;102311.72;;;6.83;65.67
69574;BME280;62840;52.366;5.980;2023-04-30T00:59:30;102306.44;;;6.83;65.65
69574;BME280;62840;52.366;5.980;2023-04-30T01:01:56;102310.94;;;6.81;65.89
69574;BME280;62840;52.366;5.980;2023-04-30T01:04:22;102311.88;;;6.80;65.58
69574;BME280;62840;52.366;5.980;2023-04-30T01:06:48;102312.00;;;6.77;65.75
69574;BME280;62840;52.366;5.980;2023-04-30T01:09:17;102322.63;;;6.77;65.77
69574;BME280;62840;52.366;5.980;2023-04-30T01:11:51;102322.63;;;6.77;65.68
69574;BME280;62840;52.366;5.980;2023-04-30T01:14:27;102324.47;;;6.75;65.73
69574;BME280;62840;52.366;5.980;2023-04-30T01:17:04;102333.34;;;6.74;65.76
69574;BME280;62840;52.366;5.980;2023-04-30T01:19:41;102329.88;;;6.72;65.83
69574;BME280;62840;52.366;5.980;2023-04-30T01:22:12;102324.72;;;6.69;65.96
69574;BME280;62840;52.366;5.980;2023-04-30T01:25:06;102323.03;;;6.68;65.86
69574;BME280;62840;52.366;5.980;2023-04-30T01:28:04;102328.44;;;6.65;65.94
69574;BME280;62840;52.366;5.980;2023-04-30T01:30:32;102324.97;;;6.63;66.03
69574;BME280;62840;52.366;5.980;2023-04-30T01:32:59;102323.28;;;6.62;65.98
69574;BME280;62840;52.366;5.980;2023-04-30T01:35:36;102326.03;;;6.59;66.21
69574;BME280;62840;52.366;5.980;2023-04-30T01:38:18;102326.16;;;6.56;66.24
69574;BME280;62840;52.366;5.980;2023-04-30T01:40:55;102329.81;;;6.53;66.05
69574;BME280;62840;52.366;5.980;2023-04-30T01:43:34;102329.88;;;6.51;66.32
69574;BME280;62840;52.366;5.980;2023-04-30T01:46:10;102319.41;;;6.48;66.37
69574;BME280;62840;52.366;5.980;2023-04-30T01:48:50;102322.19;;;6.45;66.26
69574;BME280;62840;52.366;5.980;2023-04-30T01:51:27;102321.44;;;6.42;66.47
69574;BME280;62840;52.366;5.980;2023-04-30T01:54:00;102326.88;;;6.39;66.35
69574;BME280;62840;52.366;5.980;2023-04-30T01:56:31;102331.44;;;6.35;66.46
69574;BME280;62840;52.366;5.980;2023-04-30T01:59:03;102326.28;;;6.32;66.35
69574;BME280;62840;52.366;5.980;2023-04-30T02:01:31;102326.38;;;6.29;66.49
69574;BME280;62840;52.366;5.980;2023-04-30T02:03:58;102326.47;;;6.27;66.35
69574;BME280;62840;52.366;5.980;2023-04-30T02:06:25;102319.47;;;6.25;66.43
69574;BME280;62840;52.366;5.980;2023-04-30T02:08:51;102330.06;;;6.25;66.49
69574;BME280;62840;52.366;5.980;2023-04-30T02:11:16;102326.66;;;6.23;66.41
69574;BME280;62840;52.366;5.980;2023-04-30T02:13:42;102335.50;;;6.22;66.32
69574;BME280;62840;52.366;5.980;2023-04-30T02:16:10;102331.25;;;6.18;66.14
69574;BME280;62840;52.366;5.980;2023-04-30T02:18:36;102337.59;;;6.14;66.07
69574;BME280;62840;52.366;5.980;2023-04-30T02:21:02;102332.44;;;6.11;66.63
69574;BME280;62840;52.366;5.980;2023-04-30T02:23:28;102338.75;;;6.06;66.20
69574;BME280;62840;52.366;5.980;2023-04-30T02:25:53;102337.97;;;6.04;66.59
69574;BME280;62840;52.366;5.980;2023-04-30T02:28:19;102338.09;;;6.01;66.47
69574;BME280;62840;52.366;5.980;2023-04-30T02:30:45;102338.09;;;6.01;66.55
69574;BME280;62840;52.366;5.980;2023-04-30T02:33:13;102341.69;;;6.00;66.60
69574;BME280;62840;52.366;5.980;2023-04-30T02:35:39;102334.63;;;5.99;66.55
69574;BME280;62840;52.366;5.980;2023-04-30T02:38:05;102340.78;;;6.00;66.66
69574;BME280;62840;52.366;5.980;2023-04-30T02:40:31;102339.13;;;5.97;66.44
69574;BME280;62840;52.366;5.980;2023-04-30T02:42:57;102336.47;;;5.97;66.42
69574;BME280;62840;52.366;5.980;2023-04-30T02:45:22;102336.53;;;5.96;66.44
69574;BME280;62840;52.366;5.980;2023-04-30T02:47:48;102329.56;;;5.93;66.58
69574;BME280;62840;52.366;5.980;2023-04-30T02:50:16;102334.06;;;5.91;66.65
69574;BME280;62840;52.366;5.980;2023-04-30T02:52:44;102329.72;;;5.90;66.85
69574;BME280;62840;52.366;5.980;2023-04-30T02:55:10;102331.56;;;5.88;66.70
69574;BME280;62840;52.366;5.980;2023-04-30T02:57:36;102330.75;;;5.86;66.87
69574;BME280;62840;52.366;5.980;2023-04-30T03:00:02;102333.53;;;5.83;66.65
69574;BME280;62840;52.366;5.980;2023-04-30T03:02:29;102330.94;;;5.81;66.77
69574;BME280;62840;52.366;5.980;2023-04-30T03:04:54;102326.63;;;5.79;66.82
69574;BME280;62840;52.366;5.980;2023-04-30T03:07:23;102333.88;;;5.74;66.88
69574;BME280;62840;52.366;5.980;2023-04-30T03:09:49;102326.97;;;5.70;67.01
69574;BME280;62840;52.366;5.980;2023-04-30T03:12:14;102325.22;;;5.68;66.76
69574;BME280;62840;52.366;5.980;2023-04-30T03:14:40;102326.28;;;5.64;67.10
69574;BME280;62840;52.366;5.980;2023-04-30T03:17:06;102323.75;;;5.61;66.92
69574;BME280;62840;52.366;5.980;2023-04-30T03:19:32;102321.28;;;5.57;67.04
69574;BME280;62840;52.366;5.980;2023-04-30T03:21:57;102317.94;;;5.52;67.03
69574;BME280;62840;52.366;5.980;2023-04-30T03:24:26;102334.81;;;5.49;67.03
69574;BME280;62840;52.366;5.980;2023-04-30T03:26:52;102325.25;;;5.45;67.14
69574;BME280;62840;52.366;5.980;2023-04-30T03:29:17;102313.84;;;5.43;67.05
69574;BME280;62840;52.366;5.980;2023-04-30T03:31:43;102318.34;;;5.41;67.02
69574;BME280;62840;52.366;5.980;2023-04-30T03:34:09;102317.66;;;5.36;67.14
69574;BME280;62840;52.366;5.980;2023-04-30T03:36:35;102319.63;;;5.31;66.89
69574;BME280;62840;52.366;5.980;2023-04-30T03:39:00;102317.16;;;5.26;67.03
69574;BME280;62840;52.366;5.980;2023-04-30T03:41:29;102318.09;;;5.23;66.92
69574;BME280;62840;52.366;5.980;2023-04-30T03:43:55;102309.38;;;5.21;66.82
69574;BME280;62840;52.366;5.980;2023-04-30T03:46:21;102312.94;;;5.20;67.01
69574;BME280;62840;52.366;5.980;2023-04-30T03:48:46;102313.91;;;5.18;66.87
69574;BME280;62840;52.366;5.980;2023-04-30T03:51:12;102313.13;;;5.14;66.89
69574;BME280;62840;52.366;5.980;2023-04-30T03:53:38;102317.63;;;5.12;66.98
69574;BME280;62840;52.366;5.980;2023-04-30T03:56:04;102316.72;;;5.13;66.85
69574;BME280;62840;52.366;5.980;2023-04-30T03:58:34;102320.38;;;5.09;66.88
69574;BME280;62840;52.366;5.980;2023-04-30T04:00:59;102310.91;;;5.03;66.68
69574;BME280;62840;52.366;5.980;2023-04-30T04:03:25;102322.44;;;5.01;66.76
69574;BME280;62840;52.366;5.980;2023-04-30T04:05:51;102313.81;;;4.96;66.89
69574;BME280;62840;52.366;5.980;2023-04-30T04:08:17;102313.88;;;4.93;66.99
69574;BME280;62840;52.366;5.980;2023-04-30T04:10:43;102312.16;;;4.92;66.97
69574;BME280;62840;52.366;5.980;2023-04-30T04:13:08;102321.91;;;4.90;67.04
69574;BME280;62840;52.366;5.980;2023-04-30T04:15:37;102319.38;;;4.87;67.02
69574;BME280;62840;52.366;5.980;2023-04-30T04:18:02;102313.25;;;4.86;67.15
69574;BME280;62840;52.366;5.980;2023-04-30T04:20:28;102304.47;;;4.86;67.11
69574;BME280;62840;52.366;5.980;2023-04-30T04:22:54;102296.53;;;4.86;67.12
69574;BME280;62840;52.366;5.980;2023-04-30T04:25:20;102303.53;;;4.87;67.30
69574;BME280;62840;52.366;5.980;2023-04-30T04:27:45;102322.97;;;4.86;67.15
69574;BME280;62840;52.366;5.980;2023-04-30T04:30:11;102322.97;;;4.86;67.05
69574;BME280;62840;52.366;5.980;2023-04-30T04:32:39;102314.22;;;4.83;67.05
69574;BME280;62840;52.366;5.980;2023-04-30T04:35:05;102319.50;;;4.83;66.92
69574;BME280;62840;52.366;5.980;2023-04-30T04:37:32;102321.34;;;4.81;67.09
69574;BME280;62840;52.366;5.980;2023-04-30T04:39:58;102321.41;;;4.78;67.17
69574;BME280;62840;52.366;5.980;2023-04-30T04:42:24;102318.84;;;4.77;67.09
69574;BME280;62840;52.366;5.980;2023-04-30T04:44:50;102317.19;;;4.74;67.17
69574;BME280;62840;52.366;5.980;2023-04-30T04:47:15;102322.47;;;4.74;67.38
69574;BME280;62840;52.366;5.980;2023-04-30T04:49:44;102323.38;;;4.73;67.37
69574;BME280;62840;52.366;5.980;2023-04-30T04:52:09;102326.81;;;4.75;67.24
69574;BME280;62840;52.366;5.980;2023-04-30T04:54:35;102321.53;;;4.75;67.50
69574;BME280;62840;52.366;5.980;2023-04-30T04:57:01;102331.19;;;4.76;67.38
69574;BME280;62840;52.366;5.980;2023-04-30T04:59:26;102341.72;;;4.78;67.68
69574;BME280;62840;52.366;5.980;2023-04-30T05:01:52;102340.72;;;4.80;67.52
69574;BME280;62840;52.366;5.980;2023-04-30T05:04:18;102341.53;;;4.82;67.78
69574;BME280;62840;52.366;5.980;2023-04-30T05:06:46;102349.41;;;4.86;67.56
69574;BME280;62840;52.366;5.980;2023-04-30T05:09:12;102351.91;;;4.89;67.65
69574;BME280;62840;52.366;5.980;2023-04-30T05:11:38;102352.63;;;4.94;67.78
69574;BME280;62840;52.366;5.980;2023-04-30T05:14:03;102349.84;;;4.98;67.61
69574;BME280;62840;52.366;5.980;2023-04-30T05:16:29;102349.69;;;5.03;67.85
69574;BME280;62840;52.366;5.980;2023-04-30T05:18:55;102352.22;;;5.06;67.70
69574;BME280;62840;52.366;5.980;2023-04-30T05:21:20;102358.38;;;5.07;67.60
69574;BME280;62840;52.366;5.980;2023-04-30T05:23:49;102360.88;;;5.11;67.64
69574;BME280;62840;52.366;5.980;2023-04-30T05:26:14;102356.34;;;5.15;67.76
69574;BME280;62840;52.366;5.980;2023-04-30T05:28:40;102350.88;;;5.19;67.91
69574;BME280;62840;52.366;5.980;2023-04-30T05:31:06;102355.25;;;5.20;67.62
69574;BME280;62840;52.366;5.980;2023-04-30T05:33:32;102355.13;;;5.23;67.78
69574;BME280;62840;52.366;5.980;2023-04-30T05:35:57;102357.72;;;5.25;67.83
69574;BME280;62840;52.366;5.980;2023-04-30T05:38:23;102354.94;;;5.28;67.77
69574;BME280;62840;52.366;5.980;2023-04-30T05:40:51;102353.06;;;5.32;67.99
69574;BME280;62840;52.366;5.980;2023-04-30T05:43:17;102358.16;;;5.38;68.05
69574;BME280;62840;52.366;5.980;2023-04-30T05:45:43;102358.84;;;5.43;67.83
69574;BME280;62840;52.366;5.980;2023-04-30T05:48:08;102362.16;;;5.48;68.08
69574;BME280;62840;52.366;5.980;2023-04-30T05:50:34;102357.59;;;5.53;68.04
69574;BME280;62840;52.366;5.980;2023-04-30T05:53:00;102373.22;;;5.59;68.26
69574;BME280;62840;52.366;5.980;2023-04-30T05:55:25;102372.16;;;5.65;68.19
69574;BME280;62840;52.366;5.980;2023-04-30T05:57:54;102372.78;;;5.72;68.20
69574;BME280;62840;52.366;5.980;2023-04-30T06:00:20;102371.63;;;5.79;68.10
69574;BME280;62840;52.366;5.980;2023-04-30T06:02:46;102374.03;;;5.85;68.18
69574;BME280;62840;52.366;5.980;2023-04-30T06:05:11;102364.94;;;5.92;68.17
69574;BME280;62840;52.366;5.980;2023-04-30T06:07:37;102367.22;;;6.01;68.36
69574;BME280;62840;52.366;5.980;2023-04-30T06:10:04;102367.78;;;6.09;68.40
69574;BME280;62840;52.366;5.980;2023-04-30T06:12:31;102374.44;;;6.20;68.35
69574;BME280;62840;52.366;5.980;2023-04-30T06:14:59;102377.59;;;6.29;68.39
69574;BME280;62840;52.366;5.980;2023-04-30T06:17:25;102378.03;;;6.41;68.28
69574;BME280;62840;52.366;5.980;2023-04-30T06:19:51;102387.28;;;6.53;68.38
69574;BME280;62840;52.366;5.980;2023-04-30T06:22:17;102383.19;;;6.66;68.57
69574;BME280;62840;52.366;5.980;2023-04-30T06:24:42;102380.00;;;6.78;68.51
69574;BME280;62840;52.366;5.980;2023-04-30T06:27:08;102389.19;;;6.91;68.25
69574;BME280;62840;52.366;5.980;2023-04-30T06:29:34;102385.22;;;7.02;68.26
69574;BME280;62840;52.366;5.980;2023-04-30T06:32:02;102389.19;;;7.12;68.42
69574;BME280;62840;52.366;5.980;2023-04-30T06:34:28;102388.72;;;7.23;68.65
69574;BME280;62840;52.366;5.980;2023-04-30T06:36:53;102383.88;;;7.32;68.39
69574;BME280;62840;52.366;5.980;2023-04-30T06:39:19;102382.47;;;7.44;68.47
69574;BME280;62840;52.366;5.980;2023-04-30T06:41:45;102384.66;;;7.55;68.40
69574;BME280;62840;52.366;5.980;2023-04-30T06:44:11;102384.25;;;7.64;68.28
69574;BME280;62840;52.366;5.980;2023-04-30T06:46:37;102381.97;;;7.75;68.11
69574;BME280;62840;52.366;5.980;2023-04-30T06:49:05;102381.53;;;7.85;68.34
69574;BME280;62840;52.366;5.980;2023-04-30T06:51:31;102383.00;;;7.92;68.03
69574;BME280;62840;52.366;5.980;2023-04-30T06:53:56;102380.69;;;8.03;67.83
69574;BME280;62840;52.366;5.980;2023-04-30T06:56:22;102378.50;;;8.11;68.11
69574;BME280;62840;52.366;5.980;2023-04-30T06:58:48;102379.03;;;8.20;67.78
69574;BME280;62840;52.366;5.980;2023-04-30T07:01:13;102377.78;;;8.27;67.75
69574;BME280;62840;52.366;5.980;2023-04-30T07:03:39;102381.72;;;8.37;67.64
69574;BME280;62840;52.366;5.980;2023-04-30T07:06:07;102387.53;;;8.45;67.51
69574;BME280;62840;52.366;5.980;2023-04-30T07:08:33;102392.38;;;8.54;67.37
69574;BME280;62840;52.366;5.980;2023-04-30T07:10:59;102390.22;;;8.63;67.21
69574;BME280;62840;52.366;5.980;2023-04-30T07:13:24;102390.78;;;8.69;67.06
69574;BME280;62840;52.366;5.980;2023-04-30T07:15:50;102391.31;;;8.76;67.04
69574;BME280;62840;52.366;5.980;2023-04-30T07:18:16;102393.69;;;8.82;66.74
69574;BME280;62840;52.366;5.980;2023-04-30T07:20:42;102387.13;;;8.89;66.74
69574;BME280;62840;52.366;5.980;2023-04-30T07:23:10;102387.72;;;8.94;66.68
69574;BME280;62840;52.366;5.980;2023-04-30T07:25:36;102383.03;;;8.99;66.59
69574;BME280;62840;52.366;5.980;2023-04-30T07:28:01;102388.81;;;9.08;66.43
69574;BME280;62840;52.366;5.980;2023-04-30T07:30:27;102393.66;;;9.17;66.31
69574;BME280;62840;52.366;5.980;2023-04-30T07:32:53;102381.75;;;9.24;66.18
69574;BME280;62840;52.366;5.980;2023-04-30T07:35:18;102390.19;;;9.34;66.03
69574;BME280;62840;52.366;5.980;2023-04-30T07:37:44;102379.97;;;9.42;65.98
69574;BME280;62840;52.366;5.980;2023-04-30T07:40:13;102384.97;;;9.48;65.66
69574;BME280;62840;52.366;5.980;2023-04-30T07:42:39;102383.63;;;9.57;65.77
69574;BME280;62840;52.366;5.980;2023-04-30T07:45:06;102381.50;;;9.63;65.53
69574;BME280;62840;52.366;5.980;2023-04-30T07:47:32;102388.13;;;9.72;65.31
69574;BME280;62840;52.366;5.980;2023-04-30T07:49:58;102393.09;;;9.78;65.15
69574;BME280;62840;52.366;5.980;2023-04-30T07:52:24;102390.28;;;9.81;65.03
69574;BME280;62840;52.366;5.980;2023-04-30T07:54:50;102386.50;;;9.86;64.89
69574;BME280;62840;52.366;5.980;2023-04-30T07:57:18;102390.81;;;9.88;64.81
69574;BME280;62840;52.366;5.980;2023-04-30T07:59:44;102394.16;;;9.92;64.69
69574;BME280;62840;52.366;5.980;2023-04-30T08:02:09;102393.03;;;9.96;64.93
69574;BME280;62840;52.366;5.980;2023-04-30T08:04:35;102382.97;;;10.01;64.56
69574;BME280;62840;52.366;5.980;2023-04-30T08:07:01;102392.44;;;10.07;64.46
69574;BME280;62840;52.366;5.980;2023-04-30T08:09:27;102395.72;;;10.12;64.33
69574;BME280;62840;52.366;5.980;2023-04-30T08:11:53;102399.00;;;10.17;64.29
69574;BME280;62840;52.366;5.980;2023-04-30T08:14:21;102387.13;;;10.22;64.24
69574;BME280;62840;52.366;5.980;2023-04-30T08:16:47;102401.16;;;10.26;64.17
69574;BME280;62840;52.366;5.980;2023-04-30T08:19:13;102390.22;;;10.31;64.05
69574;BME280;62840;52.366;5.980;2023-04-30T08:21:39;102398.81;;;10.36;63.70
69574;BME280;62840;52.366;5.980;2023-04-30T08:24:04;102395.97;;;10.39;63.69
69574;BME280;62840;52.366;5.980;2023-04-30T08:26:30;102398.47;;;10.42;63.65
69574;BME280;62840;52.366;5.980;2023-04-30T08:28:56;102399.13;;;10.45;63.49
69574;BME280;62840;52.366;5.980;2023-04-30T08:31:24;102404.13;;;10.52;63.39
69574;BME280;62840;52.366;5.980;2023-04-30T08:33:50;102396.91;;;10.54;63.40
69574;BME280;62840;52.366;5.980;2023-04-30T08:36:16;102406.34;;;10.59;63.41
69574;BME280;62840;52.366;5.980;2023-04-30T08:38:41;102400.66;;;10.65;63.01
69574;BME280;62840;52.366;5.980;2023-04-30T08:41:08;102401.16;;;10.72;62.84
69574;BME280;62840;52.366;5.980;2023-04-30T08:43:37;102403.41;;;10.80;62.94
69574;BME280;62840;52.366;5.980;2023-04-30T08:46:04;102399.41;;;10.87;62.69
69574;BME280;62840;52.366;5.980;2023-04-30T08:48:32;102400.81;;;10.94;62.65
69574;BME280;62840;52.366;5.980;2023-04-30T08:50:59;102397.00;;;10.98;62.36
69574;BME280;62840;52.366;5.980;2023-04-30T08:53:25;102399.22;;;11.06;62.24
69574;BME280;62840;52.366;5.980;2023-04-30T08:55:51;102404.19;;;11.12;62.24
69574;BME280;62840;52.366;5.980;2023-04-30T08:58:17;102395.69;;;11.20;62.10
69574;BME280;62840;52.366;5.980;2023-04-30T09:00:42;102396.19;;;11.26;62.20
69574;BME280;62840;52.366;5.980;2023-04-30T09:03:08;102397.38;;;11.37;62.13
69574;BME280;62840;52.366;5.980;2023-04-30T09:05:37;102386.97;;;11.46;61.83
69574;BME280;62840;52.366;5.980;2023-04-30T09:08:03;102402.41;;;11.56;61.54
69574;BME280;62840;52.366;5.980;2023-04-30T09:10:31;102388.41;;;11.66;61.42
69574;BME280;62840;52.366;5.980;2023-04-30T09:12:58;102392.41;;;11.74;61.06
69574;BME280;62840;52.366;5.980;2023-04-30T09:15:25;102389.25;;;11.81;61.20
69574;BME280;62840;52.366;5.980;2023-04-30T09:18:04;102391.34;;;11.90;61.23
69574;BME280;62840;52.366;5.980;2023-04-30T09:20:31;102390.56;;;12.03;61.20
69574;BME280;62840;52.366;5.980;2023-04-30T09:23:07;102395.97;;;12.16;60.77
69574;BME280;62840;52.366;5.980;2023-04-30T09:25:40;102383.84;;;12.24;60.67
69574;BME280;62840;52.366;5.980;2023-04-30T09:28:08;102377.06;;;12.33;59.72
69574;BME280;62840;52.366;5.980;2023-04-30T09:30:35;102381.34;;;12.36;60.26
69574;BME280;62840;52.366;5.980;2023-04-30T09:33:01;102378.06;;;12.45;60.21
69574;BME280;62840;52.366;5.980;2023-04-30T09:35:31;102376.47;;;12.55;60.23
69574;BME280;62840;52.366;5.980;2023-04-30T09:37:59;102373.19;;;12.64;60.01
69574;BME280;62840;52.366;5.980;2023-04-30T09:40:35;102378.03;;;12.72;59.33
69574;BME280;62840;52.366;5.980;2023-04-30T09:43:02;102375.06;;;12.77;59.41
69574;BME280;62840;52.366;5.980;2023-04-30T09:45:38;102373.66;;;12.84;58.91
69574;BME280;62840;52.366;5.980;2023-04-30T09:48:05;102370.78;;;12.87;59.04
69574;BME280;62840;52.366;5.980;2023-04-30T09:50:36;102372.28;;;12.91;58.90
69574;BME280;62840;52.366;5.980;2023-04-30T09:53:04;102367.59;;;12.94;59.37
69574;BME280;62840;52.366;5.980;2023-04-30T09:55:30;102375.09;;;13.02;58.96
69574;BME280;62840;52.366;5.980;2023-04-30T09:58:02;102372.09;;;13.07;58.62
69574;BME280;62840;52.366;5.980;2023-04-30T10:00:30;102367.63;;;13.07;58.33
69574;BME280;62840;52.366;5.980;2023-04-30T10:02:59;102356.69;;;13.10;58.53
69574;BME280;62840;52.366;5.980;2023-04-30T10:05:29;102358.19;;;13.14;58.65
69574;BME280;62840;52.366;5.980;2023-04-30T10:07:58;102354.34;;;13.19;58.48
69574;BME280;62840;52.366;5.980;2023-04-30T10:10:25;102357.53;;;13.24;58.18
69574;BME280;62840;52.366;5.980;2023-04-30T10:12:57;102353.56;;;13.29;58.05
69574;BME280;62840;52.366;5.980;2023-04-30T10:15:30;102348.84;;;13.33;57.98
69574;BME280;62840;52.366;5.980;2023-04-30T10:18:04;102343.16;;;13.37;57.75
69574;BME280;62840;52.366;5.980;2023-04-30T10:20:35;102335.88;;;13.40;57.77
69574;BME280;62840;52.366;5.980;2023-04-30T10:23:03;102332.97;;;13.43;58.01
69574;BME280;62840;52.366;5.980;2023-04-30T10:25:30;102329.97;;;13.47;57.74
69574;BME280;62840;52.366;5.980;2023-04-30T10:27:59;102336.94;;;13.50;57.73
69574;BME280;62840;52.366;5.980;2023-04-30T10:30:25;102337.56;;;13.53;57.48
69574;BME280;62840;52.366;5.980;2023-04-30T10:32:58;102327.53;;;13.57;57.80
69574;BME280;62840;52.366;5.980;2023-04-30T10:35:41;102322.59;;;13.64;57.21
69574;BME280;62840;52.366;5.980;2023-04-30T10:38:17;102322.38;;;13.67;57.50
69574;BME280;62840;52.366;5.980;2023-04-30T10:40:46;102318.25;;;13.74;57.03
69574;BME280;62840;52.366;5.980;2023-04-30T10:43:16;102317.94;;;13.78;56.83
69574;BME280;62840;52.366;5.980;2023-04-30T10:45:42;102319.31;;;13.84;56.76
69574;BME280;62840;52.366;5.980;2023-04-30T10:48:08;102314.56;;;13.88;56.48
69574;BME280;62840;52.366;5.980;2023-04-30T10:50:39;102314.03;;;13.95;56.78
69574;BME280;62840;52.366;5.980;2023-04-30T10:53:05;102309.16;;;14.01;56.79
69574;BME280;62840;52.366;5.980;2023-04-30T10:55:31;102314.28;;;14.04;56.66
69574;BME280;62840;52.366;5.980;2023-04-30T10:57:58;102299.69;;;14.08;56.18
69574;BME280;62840;52.366;5.980;2023-04-30T11:00:28;102297.50;;;14.13;56.42
69574;BME280;62840;52.366;5.980;2023-04-30T11:02:57;102302.22;;;14.22;56.37
69574;BME280;62840;52.366;5.980;2023-04-30T11:05:37;102301.53;;;14.31;56.07
69574;BME280;62840;52.366;5.980;2023-04-30T11:08:03;102302.78;;;14.38;56.41
69574;BME280;62840;52.366;5.980;2023-04-30T11:10:32;102298.41;;;14.49;56.33
69574;BME280;62840;52.366;5.980;2023-04-30T11:13:03;102298.41;;;14.49;55.63
69574;BME280;62840;52.366;5.980;2023-04-30T11:15:38;102289.16;;;14.53;55.43
69574;BME280;62840;52.366;5.980;2023-04-30T11:18:06;102285.25;;;14.57;55.73
69574;BME280;62840;52.366;5.980;2023-04-30T11:20:38;102282.59;;;14.68;55.72
69574;BME280;62840;52.366;5.980;2023-04-30T11:23:13;102278.28;;;14.78;55.14
69574;BME280;62840;52.366;5.980;2023-04-30T11:25:42;102284.88;;;14.86;54.92
69574;BME280;62840;52.366;5.980;2023-04-30T11:28:13;102275.34;;;14.93;55.00
69574;BME280;62840;52.366;5.980;2023-04-30T11:30:49;102275.38;;;15.04;54.85
69574;BME280;62840;52.366;5.980;2023-04-30T11:33:16;102281.59;;;15.16;55.13
69574;BME280;62840;52.366;5.980;2023-04-30T11:35:42;102278.06;;;15.27;54.53
69574;BME280;62840;52.366;5.980;2023-04-30T11:38:11;102277.44;;;15.34;53.99
69574;BME280;62840;52.366;5.980;2023-04-30T11:40:38;102264.63;;;15.38;53.98
69574;BME280;62840;52.366;5.980;2023-04-30T11:43:04;102269.25;;;15.47;54.24
69574;BME280;62840;52.366;5.980;2023-04-30T11:45:30;102259.47;;;15.57;54.18
69574;BME280;62840;52.366;5.980;2023-04-30T11:47:59;102253.19;;;15.68;53.98
69574;BME280;62840;52.366;5.980;2023-04-30T11:50:26;102247.94;;;15.78;53.54
69574;BME280;62840;52.366;5.980;2023-04-30T11:52:58;102256.97;;;15.88;53.64
69574;BME280;62840;52.366;5.980;2023-04-30T11:55:25;102252.78;;;15.95;53.10
69574;BME280;62840;52.366;5.980;2023-04-30T11:57:54;102248.84;;;15.99;53.15
69574;BME280;62840;52.366;5.980;2023-04-30T12:00:25;102246.66;;;16.04;53.00
69574;BME280;62840;52.366;5.980;2023-04-30T12:02:53;102245.28;;;16.10;53.05
69574;BME280;62840;52.366;5.980;2023-04-30T12:05:23;102233.84;;;16.18;53.48
69574;BME280;62840;52.366;5.980;2023-04-30T12:07:54;102229.88;;;16.33;53.46
69574;BME280;62840;52.366;5.980;2023-04-30T12:10:21;102239.59;;;16.45;52.71
69574;BME280;62840;52.366;5.980;2023-04-30T12:12:48;102237.38;;;16.51;52.70
69574;BME280;62840;52.366;5.980;2023-04-30T12:15:16;102222.97;;;16.61;53.21
69574;BME280;62840;52.366;5.980;2023-04-30T12:17:43;102226.44;;;16.73;52.89
69574;BME280;62840;52.366;5.980;2023-04-30T12:20:12;102224.81;;;16.82;52.33
69574;BME280;62840;52.366;5.980;2023-04-30T12:22:42;102228.81;;;16.87;52.29
69574;BME280;62840;52.366;5.980;2023-04-30T12:25:11;102222.88;;;16.94;52.45
69574;BME280;62840;52.366;5.980;2023-04-30T12:27:39;102225.78;;;17.02;51.95
69574;BME280;62840;52.366;5.980;2023-04-30T12:30:07;102220.94;;;17.05;51.90
69574;BME280;62840;52.366;5.980;2023-04-30T12:32:38;102231.19;;;17.12;51.79
69574;BME280;62840;52.366;5.980;2023-04-30T12:35:05;102220.28;;;17.13;50.99
69574;BME280;62840;52.366;5.980;2023-04-30T12:37:32;102223.22;;;17.10;51.26
69574;BME280;62840;52.366;5.980;2023-04-30T12:40:01;102215.75;;;17.14;51.49
69574;BME280;62840;52.366;5.980;2023-04-30T12:42:31;102212.50;;;17.20;51.68
69574;BME280;62840;52.366;5.980;2023-04-30T12:44:57;102209.41;;;17.24;51.84
69574;BME280;62840;52.366;5.980;2023-04-30T12:47:23;102204.53;;;17.18;51.44
69574;BME280;62840;52.366;5.980;2023-04-30T12:49:49;102200.69;;;17.11;51.69
69574;BME280;62840;52.366;5.980;2023-04-30T12:52:15;102196.03;;;17.13;51.91
69574;BME280;62840;52.366;5.980;2023-04-30T12:54:42;102207.41;;;17.26;52.03
69574;BME280;62840;52.366;5.980;2023-04-30T12:57:11;102199.78;;;17.41;50.90